sensor_id;sensor_type;location;lat;lon;timestamp;pressure;altitude;pressure_sealevel;temperature;humidity
45872;BME280;32333;55.844;-3.210;2022-12-18T00:01:52;99591.68;;;-1.60;100.00
45872;BME280;32333;55.844;-3.210;2022-12-18T00:04:22;99580.99;;;-1.38;100.00
45872;BME280;32333;55.844;-3.210;2022-12-18T00:06:50;99576.10;;;-0.37;100.00
45872;BME280;32333;55.844;-3.210;2022-12-18T00:09:19;99581.14;;;-0.41;100.00
45872;BME280;32333;55.844;-3.210;2022-12-18T00:11:47;99587.42;;;-1.37;100.00
45872;BME280;32333;55.844;-3.210;2022-12-18T00:14:34;99595.51;;;-0.73;100.00
45872;BME280;32333;55.844;-3.210;2022-12-18T00:17:03;99596.90;;;-2.12;100.00
45872;BME280;32333;55.844;-3.210;2022-12-18T00:19:30;99594.89;;;-1.59;100.00
45872;BME280;32333;55.844;-3.210;2022-12-18T00:21:58;99584.87;;;-1.56;100.00
45872;BME280;32333;55.844;-3.210;2022-12-18T00:24:25;99584.47;;;-1.96;100.00
45872;BME280;32333;55.844;-3.210;2022-12-18T00:26:53;99581.94;;;-0.88;100.00
45872;BME280;32333;55.844;-3.210;2022-12-18T00:29:20;99586.40;;;-2.12;100.00
45872;BME280;32333;55.844;-3.210;2022-12-18T00:31:48;99586.29;;;-1.71;100.00
45872;BME280;32333;55.844;-3.210;2022-12-18T00:34:15;99582.92;;;-0.75;100.00
45872;BME280;32333;55.844;-3.210;2022-12-18T00:36:46;99585.84;;;-1.18;100.00
45872;BME280;32333;55.844;-3.210;2022-12-18T00:39:14;99589.34;;;-1.15;100.00
45872;BME280;32333;55.844;-3.210;2022-12-18T00:41:43;99590.75;;;-1.27;100.00
45872;BME280;32333;55.844;-3.210;2022-12-18T00:44:36;99593.46;;;-1.51;100.00
45872;BME280;32333;55.844;-3.210;2022-12-18T00:47:03;99592.03;;;-0.93;100.00
45872;BME280;32333;55.844;-3.210;2022-12-18T00:49:32;99585.55;;;-0.61;100.00
45872;BME280;32333;55.844;-3.210;2022-12-18T00:52:00;99584.15;;;-0.93;100.00
45872;BME280;32333;55.844;-3.210;2022-12-18T00:54:27;99589.45;;;-1.30;100.00
45872;BME280;32333;55.844;-3.210;2022-12-18T00:56:55;99584.41;;;-1.56;100.00
45872;BME280;32333;55.844;-3.210;2022-12-18T00:59:23;99586.08;;;-2.51;100.00
45872;BME280;32333;55.844;-3.210;2022-12-18T01:01:51;99584.66;;;-2.76;100.00
45872;BME280;32333;55.844;-3.210;2022-12-18T01:04:19;99579.12;;;-2.47;100.00
45872;BME280;32333;55.844;-3.210;2022-12-18T01:06:47;99579.15;;;-2.22;100.00
45872;BME280;32333;55.844;-3.210;2022-12-18T01:09:15;99579.67;;;-3.40;100.00
45872;BME280;32333;55.844;-3.210;2022-12-18T01:11:43;99584.11;;;-1.63;100.00
45872;BME280;32333;55.844;-3.210;2022-12-18T01:14:36;99580.88;;;-3.30;100.00
45872;BME280;32333;55.844;-3.210;2022-12-18T01:17:05;99585.76;;;-1.71;100.00
45872;BME280;32333;55.844;-3.210;2022-12-18T01:19:32;99581.77;;;-3.53;100.00
45872;BME280;32333;55.844;-3.210;2022-12-18T01:22:01;99584.41;;;-2.96;100.00
45872;BME280;32333;55.844;-3.210;2022-12-18T01:24:29;99585.26;;;-3.53;100.00
45872;BME280;32333;55.844;-3.210;2022-12-18T01:26:56;99594.36;;;-3.85;100.00
45872;BME280;32333;55.844;-3.210;2022-12-18T01:29:24;99598.74;;;-3.24;100.00
45872;BME280;32333;55.844;-3.210;2022-12-18T01:31:55;99597.14;;;-3.34;100.00
45872;BME280;32333;55.844;-3.210;2022-12-18T01:34:23;99592.37;;;-3.25;100.00
45872;BME280;32333;55.844;-3.210;2022-12-18T01:36:51;99588.96;;;-2.63;100.00
45872;BME280;32333;55.844;-3.210;2022-12-18T01:39:20;99585.25;;;-2.30;100.00
45872;BME280;32333;55.844;-3.210;2022-12-18T01:41:48;99578.27;;;-2.65;100.00
45872;BME280;32333;55.844;-3.210;2022-12-18T01:45:24;99573.35;;;-2.16;100.00
45872;BME280;32333;55.844;-3.210;2022-12-18T01:47:56;99573.82;;;-3.20;100.00
45872;BME280;32333;55.844;-3.210;2022-12-18T01:50:30;99570.62;;;-3.33;100.00
45872;BME280;32333;55.844;-3.210;2022-12-18T01:53:02;99567.36;;;-2.67;100.00
45872;BME280;32333;55.844;-3.210;2022-12-18T01:55:35;99568.28;;;-2.73;100.00
45872;BME280;32333;55.844;-3.210;2022-12-18T01:58:05;99571.14;;;-2.42;100.00
45872;BME280;32333;55.844;-3.210;2022-12-18T02:00:34;99570.20;;;-1.67;100.00
45872;BME280;32333;55.844;-3.210;2022-12-18T02:03:01;99578.39;;;-1.87;100.00
45872;BME280;32333;55.844;-3.210;2022-12-18T02:05:39;99578.37;;;-2.89;100.00
45872;BME280;32333;55.844;-3.210;2022-12-18T02:08:13;99579.10;;;-3.65;100.00
45872;BME280;32333;55.844;-3.210;2022-12-18T02:10:51;99581.50;;;-2.44;100.00
45872;BME280;32333;55.844;-3.210;2022-12-18T02:14:38;99584.16;;;-2.11;100.00
45872;BME280;32333;55.844;-3.210;2022-12-18T02:17:15;99582.50;;;-1.91;100.00
45872;BME280;32333;55.844;-3.210;2022-12-18T02:19:57;99586.95;;;-1.78;100.00
45872;BME280;32333;55.844;-3.210;2022-12-18T02:22:35;99592.77;;;-3.21;100.00
45872;BME280;32333;55.844;-3.210;2022-12-18T02:25:17;99610.37;;;-1.84;100.00
45872;BME280;32333;55.844;-3.210;2022-12-18T02:27:49;99616.43;;;-2.65;100.00
45872;BME280;32333;55.844;-3.210;2022-12-18T02:30:18;99620.39;;;-3.12;100.00
45872;BME280;32333;55.844;-3.210;2022-12-18T02:32:48;99617.79;;;-3.76;100.00
45872;BME280;32333;55.844;-3.210;2022-12-18T02:35:22;99616.52;;;-2.94;100.00
45872;BME280;32333;55.844;-3.210;2022-12-18T02:37:51;99611.63;;;-2.50;100.00
45872;BME280;32333;55.844;-3.210;2022-12-18T02:40:21;99610.23;;;-2.52;100.00
45872;BME280;32333;55.844;-3.210;2022-12-18T02:44:41;99619.64;;;-2.35;100.00
45872;BME280;32333;55.844;-3.210;2022-12-18T02:47:10;99612.17;;;-1.87;100.00
45872;BME280;32333;55.844;-3.210;2022-12-18T02:49:45;99603.11;;;-1.48;100.00
45872;BME280;32333;55.844;-3.210;2022-12-18T02:52:22;99601.92;;;-2.07;100.00
45872;BME280;32333;55.844;-3.210;2022-12-18T02:54:58;99592.46;;;-0.78;100.00
45872;BME280;32333;55.844;-3.210;2022-12-18T02:57:34;99595.61;;;-1.01;100.00
45872;BME280;32333;55.844;-3.210;2022-12-18T03:00:05;99593.81;;;-2.01;100.00
45872;BME280;32333;55.844;-3.210;2022-12-18T03:02:37;99590.63;;;-1.09;100.00
45872;BME280;32333;55.844;-3.210;2022-12-18T03:05:13;99590.51;;;-0.64;100.00
45872;BME280;32333;55.844;-3.210;2022-12-18T03:07:45;99589.11;;;-0.94;100.00
45872;BME280;32333;55.844;-3.210;2022-12-18T03:10:18;99580.97;;;-1.36;100.00
45872;BME280;32333;55.844;-3.210;2022-12-18T03:14:38;99579.14;;;-1.16;100.00
45872;BME280;32333;55.844;-3.210;2022-12-18T03:17:13;99581.68;;;-0.55;100.00
45872;BME280;32333;55.844;-3.210;2022-12-18T03:19:43;99585.10;;;-1.10;100.00
45872;BME280;32333;55.844;-3.210;2022-12-18T03:22:13;99576.34;;;-1.20;100.00
45872;BME280;32333;55.844;-3.210;2022-12-18T03:24:43;99563.96;;;-0.90;100.00
45872;BME280;32333;55.844;-3.210;2022-12-18T03:27:14;99559.83;;;-1.02;100.00
45872;BME280;32333;55.844;-3.210;2022-12-18T03:29:48;99554.29;;;-0.40;100.00
45872;BME280;32333;55.844;-3.210;2022-12-18T03:32:23;99551.73;;;-0.17;100.00
45872;BME280;32333;55.844;-3.210;2022-12-18T03:34:54;99549.74;;;0.32;100.00
45872;BME280;32333;55.844;-3.210;2022-12-18T03:37:25;99543.79;;;-0.13;100.00
45872;BME280;32333;55.844;-3.210;2022-12-18T03:39:52;99542.38;;;-0.16;100.00
45872;BME280;32333;55.844;-3.210;2022-12-18T03:44:40;99536.49;;;-0.78;100.00
45872;BME280;32333;55.844;-3.210;2022-12-18T03:47:15;99537.92;;;-1.73;100.00
45872;BME280;32333;55.844;-3.210;2022-12-18T03:49:49;99545.73;;;-2.69;100.00
45872;BME280;32333;55.844;-3.210;2022-12-18T03:52:24;99549.98;;;-2.28;100.00
45872;BME280;32333;55.844;-3.210;2022-12-18T03:54:56;99545.70;;;-2.53;100.00
45872;BME280;32333;55.844;-3.210;2022-12-18T03:57:27;99540.10;;;-2.14;100.00
45872;BME280;32333;55.844;-3.210;2022-12-18T03:59:58;99547.24;;;-2.31;100.00
45872;BME280;32333;55.844;-3.210;2022-12-18T04:02:27;99551.53;;;-2.67;100.00
45872;BME280;32333;55.844;-3.210;2022-12-18T04:04:59;99551.69;;;-2.70;100.00
45872;BME280;32333;55.844;-3.210;2022-12-18T04:07:28;99543.07;;;-1.96;100.00
45872;BME280;32333;55.844;-3.210;2022-12-18T04:09:58;99537.71;;;-2.02;100.00
45872;BME280;32333;55.844;-3.210;2022-12-18T04:14:35;99535.77;;;-1.79;100.00
45872;BME280;32333;55.844;-3.210;2022-12-18T04:17:04;99535.73;;;-0.43;100.00
45872;BME280;32333;55.844;-3.210;2022-12-18T04:19:32;99523.19;;;-0.13;100.00
45872;BME280;32333;55.844;-3.210;2022-12-18T04:21:59;99516.65;;;-0.97;100.00
45872;BME280;32333;55.844;-3.210;2022-12-18T04:24:26;99507.59;;;-0.36;100.00
45872;BME280;32333;55.844;-3.210;2022-12-18T04:26:54;99508.53;;;-0.03;100.00
45872;BME280;32333;55.844;-3.210;2022-12-18T04:29:22;99508.39;;;0.25;100.00
45872;BME280;32333;55.844;-3.210;2022-12-18T04:31:49;99505.21;;;0.71;100.00
45872;BME280;32333;55.844;-3.210;2022-12-18T04:34:16;99501.54;;;0.38;100.00
45872;BME280;32333;55.844;-3.210;2022-12-18T04:36:44;99499.06;;;0.23;100.00
45872;BME280;32333;55.844;-3.210;2022-12-18T04:39:12;99493.33;;;1.20;100.00
45872;BME280;32333;55.844;-3.210;2022-12-18T04:41:40;99491.55;;;0.88;100.00
45872;BME280;32333;55.844;-3.210;2022-12-18T04:44:36;99486.91;;;1.33;100.00
45872;BME280;32333;55.844;-3.210;2022-12-18T04:47:04;99484.23;;;0.36;100.00
45872;BME280;32333;55.844;-3.210;2022-12-18T04:49:32;99485.45;;;0.09;100.00
45872;BME280;32333;55.844;-3.210;2022-12-18T04:52:00;99484.58;;;0.07;100.00
45872;BME280;32333;55.844;-3.210;2022-12-18T04:54:28;99484.48;;;-0.36;100.00
45872;BME280;32333;55.844;-3.210;2022-12-18T04:56:56;99476.47;;;0.23;100.00
45872;BME280;32333;55.844;-3.210;2022-12-18T04:59:23;99477.67;;;-0.81;100.00
45872;BME280;32333;55.844;-3.210;2022-12-18T05:01:51;99468.69;;;-0.22;100.00
45872;BME280;32333;55.844;-3.210;2022-12-18T05:04:19;99471.07;;;-0.77;100.00
45872;BME280;32333;55.844;-3.210;2022-12-18T05:06:46;99464.45;;;-1.30;100.00
45872;BME280;32333;55.844;-3.210;2022-12-18T05:09:15;99451.11;;;-0.77;100.00
45872;BME280;32333;55.844;-3.210;2022-12-18T05:11:43;99440.65;;;-0.70;100.00
45872;BME280;32333;55.844;-3.210;2022-12-18T05:14:36;99429.46;;;0.27;100.00
45872;BME280;32333;55.844;-3.210;2022-12-18T05:17:03;99427.59;;;0.29;100.00
45872;BME280;32333;55.844;-3.210;2022-12-18T05:19:31;99430.01;;;1.00;100.00
45872;BME280;32333;55.844;-3.210;2022-12-18T05:22:00;99432.19;;;-0.47;100.00
45872;BME280;32333;55.844;-3.210;2022-12-18T05:24:28;99426.70;;;-0.02;100.00
45872;BME280;32333;55.844;-3.210;2022-12-18T05:27:09;99428.74;;;0.17;100.00
45872;BME280;32333;55.844;-3.210;2022-12-18T05:32:50;99439.32;;;-0.03;100.00
45872;BME280;32333;55.844;-3.210;2022-12-18T05:35:53;99427.99;;;-1.23;100.00
45872;BME280;32333;55.844;-3.210;2022-12-18T05:38:28;99422.31;;;0.19;100.00
45872;BME280;32333;55.844;-3.210;2022-12-18T05:40:56;99420.21;;;-0.79;100.00
45872;BME280;32333;55.844;-3.210;2022-12-18T05:44:36;99402.93;;;0.62;100.00
45872;BME280;32333;55.844;-3.210;2022-12-18T05:47:05;99409.75;;;0.99;100.00
45872;BME280;32333;55.844;-3.210;2022-12-18T05:49:33;99416.46;;;-0.53;100.00
45872;BME280;32333;55.844;-3.210;2022-12-18T05:52:01;99422.99;;;-1.19;100.00
45872;BME280;32333;55.844;-3.210;2022-12-18T05:54:28;99431.81;;;0.15;100.00
45872;BME280;32333;55.844;-3.210;2022-12-18T05:56:56;99427.49;;;-0.35;100.00
45872;BME280;32333;55.844;-3.210;2022-12-18T05:59:23;99421.15;;;0.93;100.00
45872;BME280;32333;55.844;-3.210;2022-12-18T06:01:51;99420.18;;;0.21;100.00
45872;BME280;32333;55.844;-3.210;2022-12-18T06:04:18;99417.54;;;0.62;100.00
45872;BME280;32333;55.844;-3.210;2022-12-18T06:06:46;99416.78;;;0.38;100.00
45872;BME280;32333;55.844;-3.210;2022-12-18T06:09:13;99421.06;;;0.03;100.00
45872;BME280;32333;55.844;-3.210;2022-12-18T06:11:41;99419.08;;;1.11;100.00
45872;BME280;32333;55.844;-3.210;2022-12-18T06:14:36;99402.95;;;0.56;100.00
45872;BME280;32333;55.844;-3.210;2022-12-18T06:17:04;99400.67;;;0.74;100.00
45872;BME280;32333;55.844;-3.210;2022-12-18T06:19:31;99426.19;;;-0.06;100.00
45872;BME280;32333;55.844;-3.210;2022-12-18T06:22:00;99427.98;;;-0.73;100.00
45872;BME280;32333;55.844;-3.210;2022-12-18T06:24:28;99422.39;;;-0.50;100.00
45872;BME280;32333;55.844;-3.210;2022-12-18T06:26:56;99431.19;;;-0.07;100.00
45872;BME280;32333;55.844;-3.210;2022-12-18T06:29:25;99424.71;;;0.18;100.00
45872;BME280;32333;55.844;-3.210;2022-12-18T06:31:52;99402.34;;;0.44;100.00
45872;BME280;32333;55.844;-3.210;2022-12-18T06:34:20;99395.81;;;1.59;100.00
45872;BME280;32333;55.844;-3.210;2022-12-18T06:36:47;99408.73;;;2.36;100.00
45872;BME280;32333;55.844;-3.210;2022-12-18T06:39:15;99407.25;;;1.88;100.00
45872;BME280;32333;55.844;-3.210;2022-12-18T06:41:43;99397.36;;;0.61;100.00
45872;BME280;32333;55.844;-3.210;2022-12-18T06:44:35;99402.76;;;1.31;100.00
45872;BME280;32333;55.844;-3.210;2022-12-18T06:47:03;99393.88;;;1.47;100.00
45872;BME280;32333;55.844;-3.210;2022-12-18T06:49:32;99390.20;;;2.18;100.00
45872;BME280;32333;55.844;-3.210;2022-12-18T06:52:00;99385.49;;;1.76;100.00
45872;BME280;32333;55.844;-3.210;2022-12-18T06:54:28;99379.32;;;2.19;100.00
45872;BME280;32333;55.844;-3.210;2022-12-18T06:56:55;99389.02;;;0.17;100.00
45872;BME280;32333;55.844;-3.210;2022-12-18T06:59:24;99386.08;;;1.77;100.00
45872;BME280;32333;55.844;-3.210;2022-12-18T07:01:52;99378.26;;;0.01;100.00
45872;BME280;32333;55.844;-3.210;2022-12-18T07:04:19;99379.51;;;2.18;100.00
45872;BME280;32333;55.844;-3.210;2022-12-18T07:06:47;99377.97;;;-0.01;100.00
45872;BME280;32333;55.844;-3.210;2022-12-18T07:09:15;99378.00;;;0.60;100.00
45872;BME280;32333;55.844;-3.210;2022-12-18T07:11:42;99371.98;;;1.59;100.00
45872;BME280;32333;55.844;-3.210;2022-12-18T07:14:36;99373.86;;;1.82;100.00
45872;BME280;32333;55.844;-3.210;2022-12-18T07:17:03;99368.03;;;2.08;100.00
45872;BME280;32333;55.844;-3.210;2022-12-18T07:19:31;99365.61;;;1.76;100.00
45872;BME280;32333;55.844;-3.210;2022-12-18T07:22:00;99369.23;;;1.54;100.00
45872;BME280;32333;55.844;-3.210;2022-12-18T07:24:27;99363.25;;;0.95;100.00
45872;BME280;32333;55.844;-3.210;2022-12-18T07:26:54;99354.14;;;2.22;100.00
45872;BME280;32333;55.844;-3.210;2022-12-18T07:29:22;99352.71;;;2.24;100.00
45872;BME280;32333;55.844;-3.210;2022-12-18T07:31:51;99358.75;;;0.70;100.00
45872;BME280;32333;55.844;-3.210;2022-12-18T07:34:18;99354.54;;;1.29;100.00
45872;BME280;32333;55.844;-3.210;2022-12-18T07:36:46;99344.76;;;0.57;100.00
45872;BME280;32333;55.844;-3.210;2022-12-18T07:39:14;99335.66;;;2.04;100.00
45872;BME280;32333;55.844;-3.210;2022-12-18T07:41:42;99321.85;;;1.68;100.00
45872;BME280;32333;55.844;-3.210;2022-12-18T07:44:36;99313.29;;;0.84;100.00
45872;BME280;32333;55.844;-3.210;2022-12-18T07:47:04;99302.82;;;-0.36;100.00
45872;BME280;32333;55.844;-3.210;2022-12-18T07:49:31;99295.54;;;0.29;100.00
45872;BME280;32333;55.844;-3.210;2022-12-18T07:51:59;99286.74;;;1.60;100.00
45872;BME280;32333;55.844;-3.210;2022-12-18T07:54:27;99290.52;;;1.68;100.00
45872;BME280;32333;55.844;-3.210;2022-12-18T07:56:54;99299.28;;;1.12;100.00
45872;BME280;32333;55.844;-3.210;2022-12-18T07:59:22;99297.07;;;1.72;100.00
45872;BME280;32333;55.844;-3.210;2022-12-18T08:01:51;99300.11;;;2.02;100.00
45872;BME280;32333;55.844;-3.210;2022-12-18T08:04:18;99295.44;;;1.63;100.00
45872;BME280;32333;55.844;-3.210;2022-12-18T08:06:46;99295.50;;;-0.31;100.00
45872;BME280;32333;55.844;-3.210;2022-12-18T08:09:14;99291.38;;;-0.85;100.00
45872;BME280;32333;55.844;-3.210;2022-12-18T08:11:42;99288.74;;;-0.71;100.00
45872;BME280;32333;55.844;-3.210;2022-12-18T08:14:36;99282.84;;;-0.78;100.00
45872;BME280;32333;55.844;-3.210;2022-12-18T08:17:03;99277.02;;;-1.29;100.00
45872;BME280;32333;55.844;-3.210;2022-12-18T08:19:31;99280.00;;;-0.85;100.00
45872;BME280;32333;55.844;-3.210;2022-12-18T08:21:59;99283.28;;;-1.26;100.00
45872;BME280;32333;55.844;-3.210;2022-12-18T08:24:27;99273.11;;;-0.17;100.00
45872;BME280;32333;55.844;-3.210;2022-12-18T08:26:54;99277.60;;;0.03;100.00
45872;BME280;32333;55.844;-3.210;2022-12-18T08:29:22;99281.71;;;0.41;100.00
45872;BME280;32333;55.844;-3.210;2022-12-18T08:31:50;99279.51;;;-0.43;100.00
45872;BME280;32333;55.844;-3.210;2022-12-18T08:34:17;99280.51;;;-0.07;100.00
45872;BME280;32333;55.844;-3.210;2022-12-18T08:36:45;99278.36;;;-0.08;100.00
45872;BME280;32333;55.844;-3.210;2022-12-18T08:39:12;99279.17;;;0.04;100.00
45872;BME280;32333;55.844;-3.210;2022-12-18T08:41:40;99273.49;;;-0.14;100.00
45872;BME280;32333;55.844;-3.210;2022-12-18T08:44:36;99270.28;;;-0.27;100.00
45872;BME280;32333;55.844;-3.210;2022-12-18T08:47:04;99263.15;;;-0.10;100.00
45872;BME280;32333;55.844;-3.210;2022-12-18T08:49:31;99264.19;;;-0.19;100.00
45872;BME280;32333;55.844;-3.210;2022-12-18T08:52:00;99252.40;;;-0.91;100.00
45872;BME280;32333;55.844;-3.210;2022-12-18T08:54:28;99251.21;;;-1.03;100.00
45872;BME280;32333;55.844;-3.210;2022-12-18T08:56:55;99247.99;;;-0.91;100.00
45872;BME280;32333;55.844;-3.210;2022-12-18T08:59:22;99241.65;;;-0.78;100.00
45872;BME280;32333;55.844;-3.210;2022-12-18T09:01:50;99231.67;;;-0.54;100.00
45872;BME280;32333;55.844;-3.210;2022-12-18T09:04:18;99219.05;;;-0.93;100.00
45872;BME280;32333;55.844;-3.210;2022-12-18T09:06:46;99225.49;;;-0.98;100.00
45872;BME280;32333;55.844;-3.210;2022-12-18T09:09:15;99216.51;;;-0.61;100.00
45872;BME280;32333;55.844;-3.210;2022-12-18T09:11:42;99209.80;;;-0.53;100.00
45872;BME280;32333;55.844;-3.210;2022-12-18T09:14:36;99198.19;;;-0.50;100.00
45872;BME280;32333;55.844;-3.210;2022-12-18T09:17:03;99199.67;;;-0.56;100.00
45872;BME280;32333;55.844;-3.210;2022-12-18T09:19:32;99191.32;;;-0.44;100.00
45872;BME280;32333;55.844;-3.210;2022-12-18T09:22:00;99189.19;;;-0.62;100.00
45872;BME280;32333;55.844;-3.210;2022-12-18T09:24:27;99185.25;;;-0.49;100.00
45872;BME280;32333;55.844;-3.210;2022-12-18T09:26:55;99185.83;;;0.84;100.00
45872;BME280;32333;55.844;-3.210;2022-12-18T09:29:24;99168.24;;;-0.33;100.00
45872;BME280;32333;55.844;-3.210;2022-12-18T09:31:51;99162.95;;;-0.24;100.00
45872;BME280;32333;55.844;-3.210;2022-12-18T09:34:19;99156.39;;;-0.60;100.00
45872;BME280;32333;55.844;-3.210;2022-12-18T09:36:47;99147.30;;;-0.73;100.00
45872;BME280;32333;55.844;-3.210;2022-12-18T09:39:15;99143.54;;;-0.52;100.00
45872;BME280;32333;55.844;-3.210;2022-12-18T09:41:46;99132.38;;;-0.43;100.00
45872;BME280;32333;55.844;-3.210;2022-12-18T09:44:39;99137.21;;;-0.38;100.00
45872;BME280;32333;55.844;-3.210;2022-12-18T09:47:12;99131.13;;;-0.72;100.00
45872;BME280;32333;55.844;-3.210;2022-12-18T09:49:43;99120.35;;;-0.16;100.00
45872;BME280;32333;55.844;-3.210;2022-12-18T09:52:16;99118.19;;;-0.23;100.00
45872;BME280;32333;55.844;-3.210;2022-12-18T09:54:48;99112.35;;;0.59;100.00
45872;BME280;32333;55.844;-3.210;2022-12-18T09:57:21;99113.99;;;0.23;100.00
45872;BME280;32333;55.844;-3.210;2022-12-18T09:59:53;99116.62;;;0.22;100.00
45872;BME280;32333;55.844;-3.210;2022-12-18T10:02:23;99108.06;;;1.19;100.00
45872;BME280;32333;55.844;-3.210;2022-12-18T10:05:04;99098.80;;;0.69;98.71
45872;BME280;32333;55.844;-3.210;2022-12-18T10:07:43;99093.78;;;0.70;100.00
45872;BME280;32333;55.844;-3.210;2022-12-18T10:10:23;99090.78;;;1.53;98.13
45872;BME280;32333;55.844;-3.210;2022-12-18T10:14:43;99088.76;;;0.40;99.86
45872;BME280;32333;55.844;-3.210;2022-12-18T10:17:22;99084.23;;;0.53;100.00
45872;BME280;32333;55.844;-3.210;2022-12-18T10:19:58;99077.68;;;0.26;100.00
45872;BME280;32333;55.844;-3.210;2022-12-18T10:22:38;99075.67;;;0.24;100.00
45872;BME280;32333;55.844;-3.210;2022-12-18T10:25:18;99084.10;;;0.69;100.00
45872;BME280;32333;55.844;-3.210;2022-12-18T10:27:48;99090.03;;;0.51;100.00
45872;BME280;32333;55.844;-3.210;2022-12-18T10:30:20;99083.38;;;-0.23;96.38
45872;BME280;32333;55.844;-3.210;2022-12-18T10:32:49;99079.39;;;0.38;100.00
45872;BME280;32333;55.844;-3.210;2022-12-18T10:35:19;99070.19;;;1.27;92.18
45872;BME280;32333;55.844;-3.210;2022-12-18T10:38:06;99066.65;;;1.91;90.59
45872;BME280;32333;55.844;-3.210;2022-12-18T10:40:48;99053.79;;;1.26;89.79
45872;BME280;32333;55.844;-3.210;2022-12-18T10:44:36;99043.86;;;0.70;91.55
45872;BME280;32333;55.844;-3.210;2022-12-18T10:47:06;99032.09;;;0.22;90.62
45872;BME280;32333;55.844;-3.210;2022-12-18T10:49:47;99042.81;;;0.46;90.19
45872;BME280;32333;55.844;-3.210;2022-12-18T10:52:19;99048.52;;;0.34;92.15
45872;BME280;32333;55.844;-3.210;2022-12-18T10:54:50;99040.38;;;0.24;92.16
45872;BME280;32333;55.844;-3.210;2022-12-18T10:57:33;99028.51;;;-0.09;93.64
45872;BME280;32333;55.844;-3.210;2022-12-18T11:00:21;99028.60;;;-0.82;94.79
45872;BME280;32333;55.844;-3.210;2022-12-18T11:02:49;99016.74;;;-0.26;91.25
45872;BME280;32333;55.844;-3.210;2022-12-18T11:05:34;98997.85;;;-0.65;88.12
45872;BME280;32333;55.844;-3.210;2022-12-18T11:08:01;99002.80;;;-0.57;86.02
45872;BME280;32333;55.844;-3.210;2022-12-18T11:10:32;99011.89;;;-0.71;95.70
45872;BME280;32333;55.844;-3.210;2022-12-18T11:14:44;99002.66;;;0.17;94.39
45872;BME280;32333;55.844;-3.210;2022-12-18T11:17:19;99003.80;;;0.10;88.46
45872;BME280;32333;55.844;-3.210;2022-12-18T11:19:53;98997.35;;;0.40;87.43
45872;BME280;32333;55.844;-3.210;2022-12-18T11:22:25;98986.95;;;0.64;88.46
45872;BME280;32333;55.844;-3.210;2022-12-18T11:24:56;98980.63;;;0.20;87.78
45872;BME280;32333;55.844;-3.210;2022-12-18T11:27:25;98982.81;;;-0.81;99.70
45872;BME280;32333;55.844;-3.210;2022-12-18T11:30:07;98983.04;;;-0.77;100.00
45872;BME280;32333;55.844;-3.210;2022-12-18T11:32:37;98972.91;;;-0.68;96.75
45872;BME280;32333;55.844;-3.210;2022-12-18T11:35:16;98961.79;;;-0.17;97.51
45872;BME280;32333;55.844;-3.210;2022-12-18T11:37:50;98951.78;;;0.29;92.86
45872;BME280;32333;55.844;-3.210;2022-12-18T11:40:24;98944.17;;;-0.19;97.84
45872;BME280;32333;55.844;-3.210;2022-12-18T11:44:42;98925.23;;;-0.54;95.50
45872;BME280;32333;55.844;-3.210;2022-12-18T11:47:19;98921.72;;;-0.57;90.76
45872;BME280;32333;55.844;-3.210;2022-12-18T11:49:50;98914.85;;;-0.78;97.14
45872;BME280;32333;55.844;-3.210;2022-12-18T11:52:23;98904.58;;;-1.00;97.32
45872;BME280;32333;55.844;-3.210;2022-12-18T11:54:52;98892.24;;;-0.81;95.75
45872;BME280;32333;55.844;-3.210;2022-12-18T11:57:31;98889.12;;;0.03;97.13
45872;BME280;32333;55.844;-3.210;2022-12-18T12:00:09;98886.15;;;-0.24;93.78
45872;BME280;32333;55.844;-3.210;2022-12-18T12:02:49;98876.99;;;0.23;91.63
45872;BME280;32333;55.844;-3.210;2022-12-18T12:05:36;98860.69;;;-0.78;96.76
45872;BME280;32333;55.844;-3.210;2022-12-18T12:08:12;98857.78;;;-0.35;94.17
45872;BME280;32333;55.844;-3.210;2022-12-18T12:10:50;98852.93;;;-0.49;92.83
45872;BME280;32333;55.844;-3.210;2022-12-18T12:14:46;98851.09;;;-0.64;93.14
45872;BME280;32333;55.844;-3.210;2022-12-18T12:17:29;98847.42;;;-0.36;92.56
45872;BME280;32333;55.844;-3.210;2022-12-18T12:20:05;98841.98;;;-0.35;92.83
45872;BME280;32333;55.844;-3.210;2022-12-18T12:22:41;98839.36;;;-1.42;100.00
45872;BME280;32333;55.844;-3.210;2022-12-18T12:25:21;98837.26;;;-1.17;96.65
45872;BME280;32333;55.844;-3.210;2022-12-18T12:28:00;98831.84;;;-0.90;98.68
45872;BME280;32333;55.844;-3.210;2022-12-18T12:30:39;98819.29;;;-1.02;100.00
45872;BME280;32333;55.844;-3.210;2022-12-18T12:33:23;98805.92;;;-0.81;98.55
45872;BME280;32333;55.844;-3.210;2022-12-18T12:36:00;98796.55;;;-0.29;96.75
45872;BME280;32333;55.844;-3.210;2022-12-18T12:38:33;98785.02;;;-0.68;97.80
45872;BME280;32333;55.844;-3.210;2022-12-18T12:41:05;98782.10;;;-0.05;95.54
45872;BME280;32333;55.844;-3.210;2022-12-18T12:44:40;98764.96;;;-0.60;100.00
45872;BME280;32333;55.844;-3.210;2022-12-18T12:47:14;98764.88;;;-1.24;100.00
45872;BME280;32333;55.844;-3.210;2022-12-18T12:49:45;98754.69;;;-1.48;100.00
45872;BME280;32333;55.844;-3.210;2022-12-18T12:52:17;98755.01;;;-1.04;100.00
45872;BME280;32333;55.844;-3.210;2022-12-18T12:54:48;98759.70;;;-0.92;100.00
45872;BME280;32333;55.844;-3.210;2022-12-18T12:57:20;98734.12;;;-0.53;100.00
45872;BME280;32333;55.844;-3.210;2022-12-18T12:59:57;98735.50;;;-0.61;100.00
45872;BME280;32333;55.844;-3.210;2022-12-18T13:02:31;98741.96;;;-1.05;100.00
45872;BME280;32333;55.844;-3.210;2022-12-18T13:05:06;98736.22;;;-0.76;100.00
45872;BME280;32333;55.844;-3.210;2022-12-18T13:07:40;98729.76;;;-0.93;100.00
45872;BME280;32333;55.844;-3.210;2022-12-18T13:10:24;98721.55;;;-0.50;100.00
45872;BME280;32333;55.844;-3.210;2022-12-18T13:14:36;98714.84;;;-0.48;100.00
45872;BME280;32333;55.844;-3.210;2022-12-18T13:17:37;98712.21;;;-0.10;100.00
45872;BME280;32333;55.844;-3.210;2022-12-18T13:20:09;98710.15;;;-0.57;100.00
45872;BME280;32333;55.844;-3.210;2022-12-18T13:22:38;98704.11;;;-0.52;100.00
45872;BME280;32333;55.844;-3.210;2022-12-18T13:25:40;98706.31;;;-0.25;100.00
45872;BME280;32333;55.844;-3.210;2022-12-18T13:28:10;98695.77;;;-0.90;100.00
45872;BME280;32333;55.844;-3.210;2022-12-18T13:30:47;98670.32;;;-0.51;100.00
45872;BME280;32333;55.844;-3.210;2022-12-18T13:33:48;98653.69;;;-0.69;100.00
45872;BME280;32333;55.844;-3.210;2022-12-18T13:36:27;98664.18;;;-0.73;100.00